Time;durP1;ratioP1;P1;durP2;ratioP2;P2;SDS_P1;SDS_P2;PMS_P1;PMS_P2;Temp;Humidity;BMP_temperature;BMP_pressure;BME280_temperature;BME280_humidity;BME280_pressure;Samples;Min_cycle;Max_cycle;Signal;HPM_P1;HPM_P2
2024/01/15 00:01:34;;;;;;;19.05;5.75;;;5.50;99.90;;;5.48;80.21;100266.16;4988509;28;20105;-68
2024/01/15 00:04:02;;;;;;;16.45;6.00;;;5.50;99.90;;;5.64;78.09;100277.63;4973490;28;20042;-69
2024/01/15 00:06:33;;;;;;;23.17;6.47;;;5.50;99.90;;;5.76;77.60;100278.56;4973356;28;20051;-68
2024/01/15 00:09:02;;;;;;;22.58;6.20;;;5.60;99.90;;;5.67;77.31;100273.25;4973631;28;20435;-69
2024/01/15 00:11:31;;;;;;;14.70;5.25;;;5.60;99.90;;;5.92;77.37;100274.31;4973561;28;20051;-69
2024/01/15 00:14:00;;;;;;;17.70;5.90;;;5.70;99.90;;;5.85;77.76;100273.41;4973524;28;20124;-69
2024/01/15 00:16:28;;;;;;;16.80;5.47;;;5.70;99.90;;;5.70;78.05;100272.41;4988229;28;20042;-69
2024/01/15 00:18:57;;;;;;;22.65;6.05;;;5.60;99.90;;;5.79;78.33;100268.09;4972130;28;20543;-68
2024/01/15 00:21:25;;;;;;;23.13;6.37;;;5.70;99.90;;;5.70;77.48;100249.69;4973666;28;20051;-68
2024/01/15 00:23:53;;;;;;;25.05;5.80;;;5.60;99.90;;;5.68;77.84;100258.41;4973016;28;20042;-68
2024/01/15 00:26:22;;;;;;;19.58;6.65;;;5.60;99.90;;;5.87;77.82;100261.16;4972947;28;20476;-68
2024/01/15 00:28:52;;;;;;;18.75;5.93;;;5.70;99.90;;;5.97;77.67;100255.09;4971890;28;20065;-68
2024/01/15 00:31:20;;;;;;;16.85;6.20;;;5.80;99.90;;;6.10;77.45;100256.00;4973335;28;20123;-68
2024/01/15 00:33:49;;;;;;;21.15;6.85;;;5.90;99.90;;;5.91;77.98;100251.56;4973012;28;20105;-68
2024/01/15 00:36:17;;;;;;;20.40;6.65;;;5.80;99.90;;;6.08;79.08;100245.50;4973131;28;20073;-70
2024/01/15 00:38:47;;;;;;;22.08;6.70;;;5.90;99.90;;;5.82;79.81;100236.63;4973181;28;20047;-68
2024/01/15 00:41:15;;;;;;;17.15;5.78;;;5.80;99.90;;;5.89;81.22;100248.94;4971788;28;20241;-68
2024/01/15 00:43:44;;;;;;;22.58;6.57;;;5.70;99.90;;;5.72;81.56;100244.44;4972534;28;20162;-68
2024/01/15 00:46:14;;;;;;;21.40;5.80;;;5.60;99.90;;;5.71;81.12;100235.69;4972581;28;20457;-68
2024/01/15 00:48:42;;;;;;;23.83;6.78;;;5.60;99.90;;;5.73;81.33;100246.22;4973306;28;20043;-68
2024/01/15 00:51:11;;;;;;;18.35;6.22;;;5.60;99.90;;;5.76;80.85;100235.72;4972492;28;20055;-68
2024/01/15 00:53:39;;;;;;;20.77;6.20;;;5.60;99.90;;;5.64;81.37;100231.28;4972543;28;20614;-68
2024/01/15 00:56:08;;;;;;;19.48;6.10;;;5.50;99.90;;;5.58;80.73;100228.63;4972376;28;20480;-68
2024/01/15 00:58:36;;;;;;;17.40;5.97;;;5.40;99.90;;;5.59;79.96;100224.28;4972295;28;20043;-68
2024/01/15 01:01:04;;;;;;;14.35;5.45;;;5.50;99.90;;;5.70;79.73;100230.44;4972920;28;20117;-67
2024/01/15 01:03:34;;;;;;;12.52;5.07;;;5.50;99.90;;;5.64;79.65;100225.16;4971271;28;20389;-69
2024/01/15 01:06:03;;;;;;;18.13;6.10;;;5.50;99.90;;;5.67;79.51;100220.78;4971250;28;20488;-69
2024/01/15 01:08:31;;;;;;;16.48;5.93;;;5.60;99.90;;;5.59;80.04;100219.91;4972631;28;20488;-68
2024/01/15 01:11:00;;;;;;;18.75;5.05;;;5.50;99.90;;;4.91;79.86;100087.59;4972229;28;20054;-68
2024/01/15 01:13:28;;;;;;;9.73;4.95;;;5.50;99.90;;;5.63;79.63;100213.81;4972380;28;20081;-68
2024/01/15 01:15:57;;;;;;;13.43;5.40;;;5.50;99.90;;;5.78;79.25;100223.47;4972145;28;20054;-68
2024/01/15 01:18:25;;;;;;;14.85;5.70;;;5.60;99.90;;;5.77;78.84;100212.09;4972131;28;20058;-68
2024/01/15 01:20:55;;;;;;;14.73;5.40;;;5.70;99.90;;;5.76;79.63;100223.47;4972350;28;20050;-68
2024/01/15 01:23:23;;;;;;;14.70;5.90;;;5.70;99.90;;;5.58;80.41;100222.50;4972302;28;20447;-67
2024/01/15 01:25:52;;;;;;;19.40;5.85;;;5.60;99.90;;;5.75;82.71;100208.59;4972333;28;20057;-68
2024/01/15 01:28:20;;;;;;;15.55;6.30;;;5.60;99.90;;;5.75;84.11;100223.47;4972108;28;20043;-68
2024/01/15 01:30:49;;;;;;;15.35;5.70;;;5.60;99.90;;;5.63;85.33;100223.41;4972457;28;20063;-68
2024/01/15 01:33:17;;;;;;;16.20;5.75;;;5.60;99.90;;;5.44;85.49;100222.44;4972699;28;20142;-66
2024/01/15 01:35:46;;;;;;;12.98;5.25;;;5.50;99.90;;;5.22;86.17;100233.66;4972395;28;20238;-68
2024/01/15 01:38:16;;;;;;;13.63;5.13;;;5.20;99.90;;;5.24;86.80;100224.06;4971428;28;20453;-68
2024/01/15 01:40:44;;;;;;;12.02;5.40;;;5.20;99.90;;;5.45;87.04;100219.84;4972639;28;20082;-68
2024/01/15 01:43:13;;;;;;;15.13;5.88;;;5.30;99.90;;;5.58;86.69;100212.91;4972634;28;20047;-68
2024/01/15 01:45:41;;;;;;;11.68;5.38;;;5.40;99.90;;;5.53;87.49;100211.13;4972769;28;20074;-69
2024/01/15 01:48:10;;;;;;;22.90;6.07;;;5.50;99.90;;;5.45;89.07;100216.31;4972302;28;20054;-68
2024/01/15 01:50:38;;;;;;;19.95;5.85;;;5.40;99.90;;;5.50;89.65;100218.09;4972235;28;20035;-68
2024/01/15 01:53:09;;;;;;;20.03;6.43;;;5.40;99.90;;;5.43;90.25;100213.69;4971113;28;20078;-68
2024/01/15 01:55:40;;;;;;;17.38;5.50;;;5.30;99.90;;;5.49;90.60;100218.09;4972149;28;20105;-68
2024/01/15 01:58:09;;;;;;;16.83;6.20;;;5.40;99.90;;;5.46;91.15;100213.72;4972139;28;20046;-68
2024/01/15 02:00:37;;;;;;;30.45;6.03;;;5.40;99.90;;;5.37;92.37;100216.28;4972557;28;20481;-68
2024/01/15 02:03:06;;;;;;;23.23;5.65;;;5.30;99.90;;;5.55;92.24;100214.63;4972201;28;20079;-68
2024/01/15 02:05:37;;;;;;;18.83;5.78;;;5.40;99.90;;;5.43;92.33;100205.84;4972037;28;20069;-69
2024/01/15 02:08:06;;;;;;;18.33;5.30;;;5.40;99.90;;;5.25;92.74;100217.94;4971022;28;20047;-68
2024/01/15 02:10:34;;;;;;;16.15;5.13;;;5.20;99.90;;;5.24;92.56;100216.19;4972323;28;20105;-68
2024/01/15 02:13:04;;;;;;;12.63;5.50;;;5.20;99.90;;;5.03;92.92;100200.34;4971869;28;20093;-68
2024/01/15 02:15:33;;;;;;;14.13;4.40;;;5.00;99.90;;;5.04;92.45;100202.06;4972529;28;20405;-68
2024/01/15 02:18:03;;;;;;;9.65;4.75;;;4.90;99.90;;;4.85;91.86;100195.84;4971862;28;20053;-68
2024/01/15 02:20:33;;;;;;;9.48;4.82;;;4.80;99.90;;;4.59;91.37;100171.16;4972197;28;20134;-67
2024/01/15 02:23:12;;;;;;;7.25;4.70;;;4.70;99.90;;;4.53;90.94;100174.63;4974626;28;20042;-68
2024/01/15 02:25:43;;;;;;;10.90;4.70;;;4.50;99.90;;;4.69;90.27;100174.75;4975819;28;20050;-68
2024/01/15 02:28:13;;;;;;;9.13;4.93;;;4.60;99.90;;;4.61;90.37;100181.69;4975731;28;20043;-67
2024/01/15 02:30:44;;;;;;;6.20;4.70;;;4.60;99.90;;;3.73;90.27;100044.81;4975916;28;20134;-68
2024/01/15 02:33:13;;;;;;;7.32;4.63;;;4.50;99.90;;;4.45;89.96;100184.16;4975743;28;20066;-68
2024/01/15 02:35:42;;;;;;;10.30;4.80;;;4.40;99.90;;;4.58;90.01;100183.41;4975575;28;20043;-68
2024/01/15 02:38:12;;;;;;;8.33;4.93;;;4.50;99.90;;;4.73;90.40;100181.75;4975555;28;20062;-68
2024/01/15 02:40:40;;;;;;;11.15;4.82;;;4.50;99.90;;;4.76;90.21;100192.28;4975536;28;20050;-69
2024/01/15 02:43:08;;;;;;;9.27;4.80;;;4.60;99.90;;;4.77;90.43;100189.66;4975866;28;20098;-68
2024/01/15 02:45:37;;;;;;;11.77;5.07;;;4.60;99.90;;;4.98;89.93;100179.34;4975402;28;20054;-68
2024/01/15 02:48:06;;;;;;;10.97;5.17;;;4.80;99.90;;;5.03;90.05;100209.06;4975491;28;20054;-68
2024/01/15 02:50:34;;;;;;;9.63;4.93;;;4.90;99.90;;;4.71;90.54;100217.53;4975430;28;20042;-68
2024/01/15 02:53:02;;;;;;;7.20;4.40;;;4.70;99.90;;;4.31;91.12;100195.38;4974305;28;20652;-68
2024/01/15 02:55:32;;;;;;;4.70;4.20;;;4.40;99.90;;;3.96;92.22;100217.66;4975580;28;20105;-68
2024/01/15 02:58:00;;;;;;;8.05;4.70;;;4.00;99.90;;;4.02;94.83;100210.78;4975508;28;20492;-68
2024/01/15 03:00:29;;;;;;;11.17;4.83;;;3.90;99.90;;;3.97;96.31;100201.13;4975379;28;20042;-68
2024/01/15 03:02:58;;;;;;;13.47;4.77;;;3.90;99.90;;;4.17;96.99;100208.31;4975168;28;20042;-68
2024/01/15 03:05:26;;;;;;;12.53;5.03;;;4.00;99.90;;;4.07;97.70;100218.66;4975150;28;20050;-68
2024/01/15 03:07:55;;;;;;;10.50;4.63;;;4.00;99.90;;;3.98;98.72;100227.28;4975336;28;20045;-68
2024/01/15 03:10:23;;;;;;;9.00;4.50;;;3.90;99.90;;;4.11;99.19;100202.13;4975046;28;20070;-68
2024/01/15 03:12:53;;;;;;;10.63;5.03;;;4.00;99.90;;;4.11;99.75;100192.53;4975025;28;20113;-68
2024/01/15 03:15:21;;;;;;;9.32;4.78;;;4.00;99.90;;;4.07;100.00;100190.75;4974906;28;20145;-68
2024/01/15 03:17:49;;;;;;;8.00;4.53;;;4.00;99.90;;;4.09;100.00;100217.81;4974908;28;20043;-68
2024/01/15 03:20:18;;;;;;;8.53;4.83;;;4.00;99.90;;;4.17;100.00;100183.88;4974874;28;20381;-69
2024/01/15 03:22:46;;;;;;;10.17;5.37;;;4.00;99.90;;;4.44;100.00;100165.81;4974878;28;20047;-69
2024/01/15 03:25:14;;;;;;;14.17;5.60;;;4.20;99.90;;;4.45;100.00;100170.22;4974759;28;20157;-68
2024/01/15 03:27:43;;;;;;;21.25;5.10;;;4.30;99.90;;;4.49;100.00;100161.53;4973646;28;20047;-68
2024/01/15 03:30:14;;;;;;;18.10;5.90;;;4.40;99.90;;;4.46;100.00;100161.47;4974594;28;20093;-69
2024/01/15 03:32:43;;;;;;;17.97;5.70;;;4.40;99.90;;;4.68;100.00;100166.03;4974222;28;20511;-68
2024/01/15 03:35:11;;;;;;;15.40;5.40;;;4.50;99.90;;;4.71;99.96;100167.78;4974799;28;20178;-69
2024/01/15 03:37:39;;;;;;;17.30;5.60;;;4.60;99.90;;;4.63;100.00;100165.09;4973562;28;20043;-68
2024/01/15 03:40:10;;;;;;;8.80;5.03;;;4.60;99.90;;;4.52;100.00;100157.19;4974443;28;20515;-68
2024/01/15 03:42:38;;;;;;;;;;;4.50;99.90;;;4.53;99.87;100161.53;4975026;28;20054;-68
2024/01/15 03:45:07;;;;;;;12.60;5.30;;;4.50;99.90;;;4.35;100.00;100150.03;4989588;28;19921;-68
2024/01/15 03:47:37;;;;;;;10.07;5.37;;;4.30;99.90;;;4.36;100.00;100157.91;4974318;28;20464;-68
2024/01/15 03:50:06;;;;;;;10.18;5.07;;;4.30;99.90;;;4.35;100.00;100160.50;4974536;28;20117;-68
2024/01/15 03:52:35;;;;;;;11.97;5.53;;;4.30;99.90;;;4.42;100.00;100162.31;4974220;28;20137;-68
2024/01/15 03:55:05;;;;;;;13.37;5.73;;;4.30;99.90;;;4.54;100.00;100157.19;4974246;28;20042;-68
2024/01/15 03:57:33;;;;;;;10.45;5.03;;;4.40;99.90;;;4.46;100.00;100157.13;4974517;28;20130;-68
2024/01/15 04:00:02;;;;;;;10.67;5.17;;;4.40;99.90;;;4.70;100.00;100150.31;4974813;28;20055;-69
2024/01/15 04:02:32;;;;;;;12.70;5.60;;;4.60;99.90;;;4.79;99.94;100146.03;4974239;28;20046;-69
2024/01/15 04:05:02;;;;;;;11.10;5.17;;;4.70;99.90;;;4.97;99.54;100140.03;4974504;28;20039;-69
2024/01/15 04:07:30;;;;;;;8.23;4.88;;;4.90;99.90;;;5.06;98.70;100142.69;4974358;28;20038;-69
2024/01/15 04:09:59;;;;;;;13.93;5.28;;;5.00;99.90;;;5.10;98.26;100150.59;4974196;28;20146;-68
2024/01/15 04:12:28;;;;;;;11.48;4.97;;;5.00;99.90;;;4.79;98.94;100153.00;4974143;28;20126;-70
2024/01/15 04:14:56;;;;;;;10.10;5.45;;;4.80;99.90;;;4.43;100.00;100153.59;4974149;28;20165;-69
2024/01/15 04:17:24;;;;;;;8.88;4.60;;;4.50;99.90;;;4.43;100.00;100156.22;4972731;28;20050;-70
2024/01/15 04:19:53;;;;;;;8.73;4.60;;;4.40;99.90;;;4.19;100.00;100146.41;4973966;28;20051;-70
2024/01/15 04:22:24;;;;;;;7.97;5.43;;;4.20;99.90;;;4.19;100.00;100151.63;4974240;28;20477;-70
2024/01/15 04:24:52;;;;;;;12.73;5.17;;;4.10;99.90;;;3.98;100.00;100138.34;4974121;28;20082;-70
2024/01/15 04:27:21;;;;;;;12.67;5.60;;;3.90;99.90;;;4.09;100.00;100136.72;4973902;28;20400;-69
2024/01/15 04:29:49;;;;;;;13.37;5.70;;;4.00;99.90;;;4.16;100.00;100135.91;4973352;28;20047;-69
2024/01/15 04:32:18;;;;;;;14.50;5.97;;;4.00;99.90;;;4.12;100.00;100141.09;4973787;28;20043;-69
2024/01/15 04:34:46;;;;;;;12.27;6.03;;;4.00;99.90;;;4.16;100.00;100138.50;4973366;28;20050;-70
2024/01/15 04:37:15;;;;;;;13.60;5.33;;;4.00;99.90;;;4.32;100.00;100147.38;4974097;28;20070;-69
2024/01/15 04:39:45;;;;;;;15.00;5.30;;;4.10;99.90;;;4.47;100.00;100143.16;4973589;28;20047;-69
2024/01/15 04:42:13;;;;;;;9.20;4.75;;;4.40;99.90;;;4.29;100.00;100145.63;4973675;28;20056;-69
2024/01/15 04:44:42;;;;;;;6.50;4.07;;;4.30;99.90;;;4.33;100.00;100139.56;4972552;28;20050;-71
2024/01/15 04:47:10;;;;;;;8.63;5.13;;;4.40;99.90;;;4.04;100.00;100141.03;4973778;28;20745;-71
2024/01/15 04:49:38;;;;;;;5.33;4.83;;;4.10;99.90;;;4.25;100.00;100136.00;4973954;28;20090;-70
2024/01/15 04:52:10;;;;;;;6.23;5.07;;;4.20;99.90;;;4.32;100.00;100144.75;4988327;28;20058;-70
2024/01/15 04:54:38;;;;;;;8.47;4.50;;;4.20;99.90;;;3.95;100.00;100124.38;4988487;28;20054;-70
2024/01/15 04:57:08;;;;;;;7.83;4.60;;;4.00;99.90;;;4.15;100.00;100117.56;4973183;28;20046;-71
2024/01/15 04:59:36;;;;;;;8.75;4.68;;;4.10;99.90;;;3.91;100.00;100125.19;4973321;28;20047;-69
2024/01/15 05:02:05;;;;;;;8.20;5.10;;;3.90;99.90;;;3.92;100.00;100117.34;4973061;28;20089;-70
2024/01/15 05:04:33;;;;;;;8.83;4.93;;;3.80;99.90;;;4.00;100.00;100118.31;4972909;28;20516;-69
2024/01/15 05:07:02;;;;;;;10.93;5.07;;;3.80;99.90;;;3.96;100.00;100093.00;4972954;28;20101;-71
2024/01/15 05:09:30;;;;;;;8.50;5.07;;;3.90;99.90;;;4.20;100.00;100106.28;4972848;28;20062;-70
2024/01/15 05:12:00;;;;;;;7.90;4.97;;;4.00;99.90;;;4.15;100.00;100091.41;4972921;28;20035;-69
2024/01/15 05:14:30;;;;;;;9.10;5.00;;;4.10;99.90;;;4.05;100.00;100098.28;4972749;28;20061;-69
2024/01/15 05:16:58;;;;;;;9.82;5.07;;;4.00;99.90;;;3.92;100.00;100101.66;4973301;28;20051;-69
2024/01/15 05:19:26;;;;;;;10.03;4.77;;;3.90;99.90;;;3.90;100.00;100098.16;4973208;28;20066;-70
2024/01/15 05:21:55;;;;;;;11.43;4.80;;;3.90;99.90;;;3.98;100.00;100114.81;4973200;28;20488;-69
2024/01/15 05:24:26;;;;;;;8.00;4.47;;;3.90;99.90;;;3.88;100.00;100112.06;4972537;28;20059;-70
2024/01/15 05:26:54;;;;;;;8.60;4.80;;;3.80;99.90;;;3.77;100.00;100106.75;4972720;28;20047;-70
2024/01/15 05:29:23;;;;;;;11.13;4.53;;;3.70;99.90;;;2.96;100.00;99965.59;4972724;28;20536;-70
2024/01/15 05:31:52;;;;;;;15.17;4.73;;;3.70;99.90;;;3.65;100.00;100104.00;4972859;28;20058;-70
2024/01/15 05:34:21;;;;;;;20.70;5.90;;;3.60;99.90;;;3.70;100.00;100097.06;4972416;28;20076;-70
2024/01/15 05:36:49;;;;;;;9.90;4.50;;;3.70;99.90;;;3.69;100.00;100126.72;4972637;28;20455;-69
2024/01/15 05:39:18;;;;;;;21.43;6.20;;;3.70;99.90;;;3.57;100.00;100096.06;4971292;28;20066;-69
2024/01/15 05:41:50;;;;;;;15.43;5.47;;;3.60;99.90;;;3.52;100.00;100070.75;4972493;28;20047;-70
2024/01/15 05:44:18;;;;;;;12.60;5.70;;;3.50;99.90;;;3.54;100.00;100082.09;4972265;28;20448;-70
2024/01/15 05:46:47;;;;;;;16.00;6.13;;;3.50;99.90;;;3.48;100.00;100082.03;4972542;28;20050;-69
2024/01/15 05:49:16;;;;;;;9.77;5.63;;;3.40;99.90;;;3.69;100.00;100079.66;4972225;28;20386;-69
2024/01/15 05:51:45;;;;;;;8.98;5.10;;;3.60;99.90;;;3.62;100.00;100065.63;4972535;28;20066;-70
2024/01/15 05:54:13;;;;;;;8.23;5.53;;;3.70;99.90;;;3.80;100.00;100090.19;4971056;28;20512;-69
2024/01/15 05:56:42;;;;;;;9.80;5.13;;;3.70;99.90;;;3.82;100.00;100084.13;4971892;28;20577;-70
2024/01/15 05:59:10;;;;;;;11.60;5.30;;;3.70;99.90;;;3.86;100.00;100090.25;4972328;28;20075;-69
2024/01/15 06:01:43;;;;;;;9.23;5.77;;;3.80;99.90;;;3.87;100.00;100092.88;4972119;28;20556;-70
2024/01/15 06:04:11;;;;;;;13.83;5.37;;;3.80;99.90;;;3.85;100.00;100107.72;4972154;28;20473;-70
2024/01/15 06:06:41;;;;;;;12.97;5.93;;;3.80;99.90;;;3.80;100.00;100114.63;4971893;28;20093;-69
2024/01/15 06:09:10;;;;;;;5.88;5.03;;;3.80;99.90;;;3.36;100.00;100113.25;4972513;28;20054;-70
2024/01/15 06:11:38;;;;;;;6.60;5.10;;;3.50;99.90;;;3.07;100.00;100110.28;4972008;28;20404;-70
2024/01/15 06:14:06;;;;;;;7.53;5.93;;;3.20;99.90;;;2.76;100.00;100092.44;4970944;28;20101;-71
2024/01/15 06:16:35;;;;;;;5.93;4.73;;;2.90;99.90;;;3.06;100.00;100115.47;4972124;28;20050;-70
2024/01/15 06:19:03;;;;;;;8.03;5.90;;;3.00;99.90;;;2.94;100.00;100110.97;4971816;28;20065;-71
2024/01/15 06:21:32;;;;;;;10.03;4.87;;;2.90;99.90;;;3.24;100.00;100102.63;4971889;28;20126;-70
2024/01/15 06:24:02;;;;;;;9.57;6.07;;;3.10;99.90;;;3.37;100.00;100101.91;4971894;28;20045;-69
2024/01/15 06:26:30;;;;;;;9.60;5.32;;;3.30;99.90;;;3.29;100.00;100103.59;4971748;28;20445;-69
2024/01/15 06:28:58;;;;;;;13.60;6.03;;;3.30;99.90;;;3.28;100.00;100114.88;4971777;28;20066;-69
2024/01/15 06:31:27;;;;;;;16.17;6.07;;;3.30;99.90;;;3.33;100.00;100100.16;4971733;28;20408;-70
2024/01/15 06:33:56;;;;;;;12.87;5.93;;;3.30;99.90;;;3.32;100.00;100095.78;4971727;28;20045;-70
2024/01/15 06:36:25;;;;;;;15.52;5.57;;;3.30;99.90;;;3.51;100.00;100095.13;4970390;28;20055;-70
2024/01/15 06:38:53;;;;;;;14.67;5.33;;;3.40;99.90;;;3.83;100.00;100075.44;4971685;28;20047;-71
2024/01/15 06:41:24;;;;;;;10.10;5.00;;;3.70;99.90;;;3.61;100.00;100081.28;4972118;28;20065;-70
2024/01/15 06:43:53;;;;;;;12.10;5.33;;;3.60;99.90;;;3.75;100.00;100073.59;4971805;28;20057;-71
2024/01/15 06:46:22;;;;;;;13.73;5.27;;;3.70;99.90;;;4.13;100.00;100074.81;4970816;28;20471;-71
2024/01/15 06:48:50;;;;;;;11.97;5.57;;;3.90;99.90;;;4.12;100.00;100075.69;4971917;28;20053;-69
2024/01/15 06:51:19;;;;;;;16.03;5.77;;;4.00;99.90;;;4.12;100.00;100073.94;4971895;28;20424;-71
2024/01/15 06:53:47;;;;;;;12.00;5.93;;;4.00;99.90;;;4.05;100.00;100068.63;4971839;28;20050;-71
2024/01/15 06:56:16;;;;;;;18.33;6.10;;;4.00;99.90;;;3.85;100.00;100093.75;4971732;28;20125;-71
2024/01/15 06:58:47;;;;;;;13.73;5.47;;;3.80;99.90;;;3.75;100.00;100078.81;4971763;28;20062;-70
2024/01/15 07:01:15;;;;;;;9.77;5.00;;;3.70;99.90;;;3.52;100.00;100089.06;4971829;28;20470;-69
2024/01/15 07:03:44;;;;;;;6.60;5.03;;;3.50;99.90;;;3.40;100.00;100087.19;4971544;28;20133;-70
2024/01/15 07:06:13;;;;;;;9.23;5.20;;;3.40;99.90;;;3.37;100.00;100044.44;4971547;28;20507;-70
2024/01/15 07:08:42;;;;;;;8.20;5.20;;;3.50;99.90;;;3.55;100.00;100082.13;4973131;28;20039;-71
2024/01/15 07:11:10;;;;;;;8.93;5.20;;;3.50;99.90;;;3.68;100.00;100073.53;4975101;28;20078;-71
2024/01/15 07:13:39;;;;;;;14.97;5.37;;;3.60;99.90;;;3.76;100.00;100064.88;4975215;28;20050;-70
2024/01/15 07:16:09;;;;;;;14.33;5.80;;;3.60;99.90;;;3.89;100.00;100057.16;4974034;28;20039;-71
2024/01/15 07:18:37;;;;;;;16.38;5.70;;;3.70;99.90;;;3.91;100.00;100052.81;4975056;28;20105;-69
2024/01/15 07:21:06;;;;;;;14.83;5.73;;;3.80;99.90;;;4.03;100.00;100052.03;4975071;28;20537;-70
2024/01/15 07:23:34;;;;;;;15.13;5.90;;;3.90;99.90;;;4.10;100.00;100074.81;4974655;28;20086;-71
2024/01/15 07:26:03;;;;;;;17.47;6.90;;;4.00;99.90;;;3.84;100.00;100051.03;4975240;28;20047;-71
2024/01/15 07:28:31;;;;;;;20.83;6.23;;;3.90;99.90;;;4.02;100.00;100045.06;4974568;28;20135;-69
2024/01/15 07:31:01;;;;;;;27.33;6.63;;;3.90;99.90;;;4.18;100.00;100052.19;4974885;28;20063;-72
2024/01/15 07:33:31;;;;;;;21.35;6.15;;;4.00;99.90;;;4.08;100.00;100056.47;4974546;28;20050;-72
2024/01/15 07:36:02;;;;;;;19.57;5.80;;;4.00;99.90;;;4.15;100.00;100070.47;4974836;28;20039;-79
2024/01/15 07:38:31;;;;;;;12.85;5.75;;;4.10;99.90;;;4.12;99.54;100060.84;4975445;28;20051;-70
2024/01/15 07:40:59;;;;;;;19.23;6.03;;;4.10;99.90;;;4.18;97.78;100071.38;4974742;28;20113;-68
2024/01/15 07:43:28;;;;;;;19.07;5.80;;;4.10;99.90;;;4.16;96.27;100080.09;4974466;28;20055;-78
2024/01/15 07:45:57;;;;;;;14.30;6.07;;;4.10;99.90;;;4.16;95.93;100061.78;4990287;28;20102;-73
2024/01/15 07:48:26;;;;;;;12.47;5.50;;;4.10;99.90;;;4.21;94.70;100071.41;4974490;28;20038;-73
2024/01/15 07:50:56;;;;;;;18.97;5.73;;;4.20;99.90;;;4.23;94.46;100080.16;4974691;28;20408;-77
2024/01/15 07:53:24;;;;;;;15.52;5.72;;;4.20;99.90;;;4.14;97.43;100063.50;4974947;28;20069;-75
2024/01/15 07:55:53;;;;;;;18.77;6.30;;;4.10;99.90;;;4.08;100.00;100076.53;4974703;28;20046;-72
2024/01/15 07:58:21;;;;;;;27.07;7.60;;;4.00;99.90;;;3.96;100.00;100095.59;4974251;28;20050;-73
2024/01/15 08:00:50;;;;;;;26.90;6.33;;;4.00;99.90;;;4.15;100.00;100070.47;4973150;28;20582;-73
2024/01/15 08:03:19;;;;;;;15.07;6.27;;;4.10;99.90;;;4.03;100.00;100068.63;4973945;28;20051;-73
2024/01/15 08:05:47;;;;;;;14.93;5.80;;;4.00;99.90;;;3.95;97.89;100072.06;4974157;28;20141;-72
2024/01/15 08:08:17;;;;;;;20.03;6.40;;;3.90;99.90;;;3.96;95.22;100100.84;4974098;28;20389;-73
2024/01/15 08:10:46;;;;;;;10.50;5.83;;;3.90;99.90;;;4.18;93.66;100076.59;4974284;28;20125;-69
2024/01/15 08:13:15;;;;;;;12.67;5.00;;;4.10;99.90;;;4.23;91.76;100074.91;4972722;28;20061;-69
2024/01/15 08:15:43;;;;;;;7.67;4.87;;;4.20;99.90;;;4.19;91.28;100082.72;4973100;28;20047;-75
2024/01/15 08:18:12;;;;;;;7.67;5.00;;;4.10;99.90;;;4.26;91.42;100094.97;4973760;28;20054;-72
2024/01/15 08:20:41;;;;;;;10.37;5.23;;;4.20;99.90;;;4.23;91.14;100100.19;4973642;28;20109;-73
2024/01/15 08:23:09;;;;;;;7.43;4.70;;;4.20;99.90;;;4.15;91.98;100097.53;4973679;28;20093;-74
2024/01/15 08:25:39;;;;;;;7.90;5.13;;;4.10;99.90;;;4.15;92.54;100108.00;4973869;28;20054;-70
2024/01/15 08:28:08;;;;;;;6.28;5.18;;;4.10;99.90;;;4.09;93.58;100097.47;4973810;28;20543;-71
2024/01/15 08:30:36;;;;;;;10.17;5.53;;;4.00;99.90;;;4.06;94.44;100089.59;4973564;28;20055;-74
2024/01/15 08:33:05;;;;;;;11.60;6.20;;;4.00;99.90;;;4.19;94.87;100096.69;4973753;28;20046;-71
2024/01/15 08:35:46;;;;;;;8.77;5.40;;;4.10;99.90;;;4.16;94.82;100094.03;4974095;28;20366;-73
2024/01/15 08:38:14;;;;;;;17.63;6.10;;;4.10;99.90;;;4.17;94.79;100093.19;4973240;28;20496;-71
2024/01/15 08:40:44;;;;;;;8.17;5.77;;;4.10;99.90;;;4.04;95.51;100099.19;4973415;28;20109;-71
2024/01/15 08:43:12;;;;;;;16.63;5.72;;;4.00;99.90;;;4.16;95.10;100080.94;4973428;28;20050;-70
2024/01/15 08:45:41;;;;;;;9.20;5.00;;;4.10;99.90;;;4.16;94.30;100096.66;4973807;28;20070;-68
2024/01/15 08:48:09;;;;;;;7.90;4.70;;;4.10;99.90;;;4.27;94.30;100102.88;4973074;28;20575;-72
2024/01/15 08:50:39;;;;;;;8.87;5.17;;;4.20;99.90;;;4.53;93.26;100101.31;4973362;28;20048;-71
2024/01/15 08:53:08;;;;;;;8.87;5.60;;;4.40;99.90;;;3.98;91.83;99990.97;4972998;28;20049;-73
2024/01/15 08:55:37;;;;;;;11.30;5.43;;;4.60;99.90;;;4.91;91.73;100116.41;4973015;28;20492;-78
2024/01/15 08:58:07;;;;;;;12.45;5.38;;;4.70;99.90;;;4.98;91.81;100116.44;4972988;28;20125;-74
2024/01/15 09:00:35;;;;;;;11.35;5.80;;;4.90;99.90;;;5.04;91.63;100113.00;4973274;28;20066;-74
2024/01/15 09:03:05;;;;;;;16.65;5.50;;;5.00;99.90;;;5.05;94.14;100101.66;4972970;28;20042;-80
2024/01/15 09:05:34;;;;;;;17.63;5.53;;;5.00;99.90;;;4.73;96.52;100119.78;4987765;28;20050;-74
2024/01/15 09:08:04;;;;;;;15.90;6.22;;;4.70;99.90;;;4.61;97.54;100121.47;4972667;28;20063;-71
2024/01/15 09:10:32;;;;;;;13.93;5.93;;;4.60;99.90;;;4.61;98.58;100121.47;4972825;28;20137;-72
2024/01/15 09:13:03;;;;;;;20.97;5.60;;;4.60;99.90;;;4.65;98.86;100121.47;4973137;28;20130;-71
2024/01/15 09:15:34;;;;;;;25.07;6.23;;;4.60;99.90;;;4.64;98.51;100131.94;4972739;28;20062;-73
2024/01/15 09:18:05;;;;;;;14.27;6.73;;;4.60;99.90;;;4.56;99.22;100150.22;4971742;28;20453;-72
2024/01/15 09:20:38;;;;;;;15.87;5.93;;;4.50;99.90;;;4.55;99.39;100127.50;4972736;28;20074;-70
2024/01/15 09:23:07;;;;;;;16.67;6.30;;;4.50;99.90;;;4.65;98.93;100117.97;4972873;28;20069;-73
2024/01/15 09:25:35;;;;;;;13.07;5.27;;;4.60;99.90;;;4.66;97.86;100122.34;4972829;28;20047;-74
2024/01/15 09:28:04;;;;;;;18.97;5.70;;;4.60;99.90;;;4.65;97.03;100125.81;4972552;28;20141;-73
2024/01/15 09:30:34;;;;;;;17.67;5.10;;;4.60;99.90;;;4.74;97.07;100124.19;4971925;28;20082;-68
2024/01/15 09:33:02;;;;;;;18.40;5.15;;;4.70;99.90;;;4.86;97.23;100126.00;4972604;28;20511;-71
2024/01/15 09:35:31;;;;;;;14.93;5.82;;;4.70;99.90;;;4.83;96.17;100115.47;4972367;28;20051;-72
2024/01/15 09:38:00;;;;;;;9.15;5.75;;;4.70;99.90;;;5.02;96.35;100125.19;4971306;28;20047;-73
2024/01/15 09:40:34;;;;;;;15.83;6.50;;;4.80;99.90;;;5.20;96.40;100126.19;4972374;28;20058;-71
2024/01/15 09:43:03;;;;;;;19.65;6.20;;;5.00;99.90;;;5.28;95.97;100132.31;4972279;28;20468;-72
2024/01/15 09:45:33;;;;;;;13.88;5.40;;;5.10;99.90;;;5.47;96.17;100130.69;4971297;28;20493;-72
2024/01/15 09:48:02;;;;;;;15.27;5.30;;;5.30;99.90;;;5.60;96.03;100108.88;4972384;28;20571;-72
2024/01/15 09:50:31;;;;;;;18.20;5.65;;;5.40;99.90;;;5.55;94.34;100110.59;4972185;28;20070;-70
2024/01/15 09:53:00;;;;;;;16.42;5.43;;;5.40;99.90;;;5.62;94.31;100115.00;4972425;28;20066;-73
2024/01/15 09:55:32;;;;;;;10.05;5.60;;;5.50;99.90;;;5.58;94.40;100112.34;4971976;28;20043;-71
2024/01/15 09:58:02;;;;;;;22.30;5.95;;;5.50;99.90;;;5.60;94.49;100123.72;4972710;28;20089;-71
2024/01/15 10:00:36;;;;;;;11.63;5.25;;;5.50;99.90;;;5.07;94.82;100149.72;4972044;28;20485;-72
2024/01/15 10:03:06;;;;;;;9.75;5.32;;;5.20;99.90;;;4.97;95.87;100155.75;4972654;28;20404;-71
2024/01/15 10:05:34;;;;;;;12.10;6.22;;;5.00;99.90;;;4.76;95.69;100161.72;4980857;28;20049;-71
2024/01/15 10:08:05;;;;;;;15.93;5.70;;;4.70;99.90;;;5.16;95.64;100158.50;4971848;28;20077;-71
2024/01/15 10:10:34;;;;;;;9.88;5.22;;;5.00;99.90;;;5.16;94.48;100173.34;4971982;28;20066;-70
2024/01/15 10:13:04;;;;;;;17.33;6.07;;;5.10;99.90;;;5.19;94.55;100160.22;4972475;28;20054;-71
2024/01/15 10:15:37;;;;;;;13.55;5.25;;;5.10;99.90;;;5.07;95.31;100160.19;4971926;28;20109;-73
2024/01/15 10:18:06;;;;;;;20.02;6.05;;;5.00;99.90;;;5.18;95.61;100172.50;4972292;28;20547;-73
2024/01/15 10:20:35;;;;;;;18.83;5.68;;;5.00;99.90;;;5.16;94.33;100166.34;4971779;28;20440;-72
2024/01/15 10:23:04;;;;;;;16.05;6.03;;;5.10;99.90;;;5.08;94.74;100164.56;4970726;28;20046;-71
2024/01/15 10:25:33;;;;;;;18.40;5.67;;;5.10;99.90;;;4.97;94.61;100169.75;4971617;28;20047;-71